目前日期文章:201406 (269)

瀏覽方式: 標題列表 簡短摘要
發表時間 文章標題 人氣 留言
2014-06-30 華碩ROG玩家共和國【尊爵至尊】i7六核GTX780TI獨顯SSD電玩機 (0) (0)
2014-06-30 Wii機身專用透明保護膜(加贈遙控器面板專用透明保護膜(2入)) (0) (0)
2014-06-30 丹麥e-bodum 雙層電熱水壺-黑色11445-01TW (0) (0)
2014-06-30 ELAC德國精品蘑菇頭鋁帶超高音4 PI Plus.2 (TI/SW) (1) (0)
2014-06-30 BALLY VIANSON經典黑白黑雙色織帶小牛皮萬用卡夾/短夾(黑色) (0) (0)
2014-06-30 日立12公斤日本原裝滾筒洗衣機SFBD3800T (0) (0)
2014-06-30 友情牌15W捕蚊燈 VF-1552 (0) (0)
2014-06-30 Yamaha高音質耳罩式耳機(HPH-PRO500)-二色 (2) (0)
2014-06-30 名片型 護貝膜 2 x 3 (60 x 95 mm) 400張 (0) (0)
2014-06-30 TATUNG大同B式除濕機TDH-140GB (0) (0)
2014-06-29 TECO 東元300公升上掀式單門冷凍櫃(RL3088W) (3) (0)
2014-06-29 SANSUI山水 22吋FHD LED光碟式液晶顯示器+視訊盒(SED-2201) (0) (0)
2014-06-29 Vivienne Westwood 菱格多彩星球LOGO保齡球包-粉紅 (0) (0)
2014-06-29 CITIZEN 狩獵者三眼計時碼錶-白 (2) (0)
2014-06-29 EDEN PARK 麻花拼色美麗諾羊毛圍巾 (2) (0)
2014-06-29 COACH黑色尼龍布真皮邊手提/肩斜背方包(大) (1) (0)
2014-06-29 LineQ Apple iPad 30pin to HDMI轉接器 (1) (0)
2014-06-29 SEIKO Kinetic 終極警探人動電能腕錶-軍綠/40mm (0) (0)
2014-06-28 MICHELIN米其林 弧貼軟骨雨刷-TOYOTA RAV4 97年車款專用組合 (1) (0)
2014-06-28 金嗓1500GB大力神電腦伴唱機(MT-1500) (1) (0)
2014-06-28 [單機狠降]ASUS Fonepad7 ME175CG 雙卡7吋通話平板(霧面灰) (0) (0)
2014-06-28 Hello Kitty 偺儘t列 多弁酯扈停噫U (0) (0)
2014-06-28 尚朋堂直立式LED遙控陶瓷電暖器SH-8822 (0) (0)
2014-06-28 SONY NFC藍芽球型喇叭(SRS-BTV5) (2) (0)
2014-06-28 KORG TM-50 全弁鄑N光調音/節拍器(黑色) (0) (0)
2014-06-28 LG 55吋Smart LED液晶電視(55LN5700) (0) (0)
2014-06-28 戰神:崛起 初回鐵盒版 PS3中英文合版 (3) (0)
2014-06-28 CITIZEN xC 華麗巴洛克都會電波腕錶-銀黑/36mm (0) (0)
2014-06-28 TECO東元 50吋FHD LED連網液晶顯示器+視訊盒(TL5008TRE) (1) (0)
2014-06-28 【德國凱馳 KARCHER】RC4000 智慧型集塵機器人 (4) (0)
2014-06-27 (二色選)日本TANITA BMI電子體重計HD-383 (0) (0)
2014-06-27 COACH SAFFIANO皮革肩背托特包(大)-海軍藍色 (0) (0)
2014-06-27 Emporio Armani 滿版皮革LOGO斜後背包-黑 (1) (0)
2014-06-27 奇美32吋液晶顯示器+視訊盒(TL-32LK60) (10) (0)
2014-06-27 AIGNER YMOD系列 商務男包 / 側背包-泥棕(中) (0) (0)
2014-06-27 丹麥智慧型72L上層冷凍櫃(TopBox400C) (0) (0)
2014-06-27 Vita-Mix TNC全營養調理機精進(黑)+橘寶6瓶 (1) (0)
2014-06-27 日本TANITA時尚超薄電子體重計HD357-典雅金 (0) (0)
2014-06-27 V73 CLASSIC N°03 義大利轉印帆布購物包(大) (0) (0)
2014-06-27 COACH紫色麂皮小嘴鳥造型鑰匙圈 (0) (0)
2014-06-27 V73 NEW WAVE 編織設計帆布兩用購物包(灰x玫瑰色) (0) (0)
2014-06-27 SANTO 3D立體溫熱按摩衣ST-730 (0) (0)
2014-06-27 CITIZEN Eco-Drive 雷霆萬鈞光動能 計時秒錶-黑/43mm (0) (0)
2014-06-27 良將 14吋雙拉掛工業壁扇 S-1429S (1) (0)
2014-06-27 怡悅HEPA濾心加CPZ異味吸附劑】適用Honeywell 17450/18450清靜機 (1) (0)
2014-06-27 捕蚊之家光觸媒捕蚊器 (CJ-005-台灣製)-兩入組 (0) (0)
2014-06-27 PRADA 防刮紋方型手提包-附鎖(淺灰) (1) (0)
2014-06-27 brother 原廠連續標籤帶DK-22223 ( 白底黑字 50mm ) (0) (0)
2014-06-27 國際牌Panasonic 修容器 ER-GN25VP(快速到貨) (0) (0)
2014-06-27 JSmax 貝殼心機7吋雙核手機平板(3G版/4G/3色) (0) (0)
找更多相關文章與討論